Time;durP1;ratioP1;P1;durP2;ratioP2;P2;SDS_P1;SDS_P2;PMS_P1;PMS_P2;Temp;Humidity;BMP_temperature;BMP_pressure;BME280_temperature;BME280_humidity;BME280_pressure;Samples;Min_cycle;Max_cycle;Signal;HPM_P1;HPM_P2
2022/08/22 00:02:18;;;;;;;3.53;2.27;;;26.10;62.20;;;;;;4936477;29;20587;-73
2022/08/22 00:05:12;;;;;;;3.30;2.30;;;26.10;62.30;;;;;;4919561;29;20436;-73
2022/08/22 00:07:43;;;;;;;4.00;2.40;;;26.00;62.30;;;;;;4936917;29;20431;-73
2022/08/22 00:10:23;;;;;;;3.67;2.27;;;26.00;62.30;;;;;;4953710;28;20525;-73
2022/08/22 00:13:01;;;;;;;4.07;2.37;;;26.00;62.30;;;;;;4936497;29;20437;-73
2022/08/22 00:15:43;;;;;;;4.07;2.10;;;26.00;62.30;;;;;;4920936;29;20499;-73
2022/08/22 00:18:13;;;;;;;3.60;2.37;;;26.00;62.30;;;;;;4953498;29;20411;-73
2022/08/22 00:21:02;;;;;;;3.60;2.37;;;26.00;62.50;;;;;;4936373;29;20411;-73
2022/08/22 00:23:44;;;;;;;2.60;2.23;;;25.90;62.40;;;;;;4920775;28;20463;-73
2022/08/22 00:26:33;;;;;;;3.90;2.30;;;25.90;62.40;;;;;;4921246;29;20426;-73
2022/08/22 00:29:06;;;;;;;4.70;2.57;;;25.90;62.50;;;;;;4936353;29;20460;-73
2022/08/22 00:31:44;;;;;;;3.57;2.30;;;25.90;62.50;;;;;;4936624;28;20426;-73
2022/08/22 00:34:21;;;;;;;3.83;2.53;;;25.90;62.50;;;;;;4942092;28;20455;-73
2022/08/22 00:36:56;;;;;;;2.93;2.50;;;25.90;62.60;;;;;;4964496;28;20440;-73
2022/08/22 00:39:46;;;;;;;2.47;2.23;;;25.90;62.60;;;;;;4950076;28;20881;-73
2022/08/22 00:42:32;;;;;;;3.37;2.80;;;25.90;62.60;;;;;;4972761;28;20445;-73
2022/08/22 00:45:07;;;;;;;3.20;2.50;;;25.90;62.70;;;;;;4959880;28;20387;-73
2022/08/22 00:47:39;;;;;;;2.97;2.43;;;25.80;62.70;;;;;;4959445;28;20398;-73
2022/08/22 00:50:56;;;;;;;2.90;2.53;;;25.80;62.70;;;;;;4959396;28;20509;-73
2022/08/22 00:54:08;;;;;;;3.40;2.27;;;25.80;62.80;;;;;;4976290;28;20456;-73
2022/08/22 00:56:55;;;;;;;3.60;2.20;;;25.80;62.80;;;;;;4930061;28;20512;-73
2022/08/22 00:59:35;;;;;;;3.70;2.50;;;25.80;62.90;;;;;;4976704;28;20449;-73
2022/08/22 01:02:22;;;;;;;4.03;2.40;;;25.80;63.00;;;;;;4959423;28;20448;-73
2022/08/22 01:04:59;;;;;;;2.53;2.33;;;25.70;63.00;;;;;;4943383;28;20517;-73
2022/08/22 01:07:34;;;;;;;2.37;2.10;;;25.70;63.00;;;;;;4939559;29;20441;-73
2022/08/22 01:10:13;;;;;;;3.33;2.40;;;25.70;63.00;;;;;;4940133;29;20414;-73
2022/08/22 01:13:04;;;;;;;3.83;2.43;;;25.70;63.10;;;;;;4939992;29;20455;-73
2022/08/22 01:15:35;;;;;;;2.73;2.37;;;25.70;63.10;;;;;;4924097;29;20485;-73
2022/08/22 01:18:22;;;;;;;3.57;2.60;;;25.60;63.00;;;;;;4939853;29;20758;-73
2022/08/22 01:20:56;;;;;;;3.00;2.70;;;25.60;63.10;;;;;;4940092;29;20489;-73
2022/08/22 01:24:02;;;;;;;5.20;2.43;;;25.60;63.10;;;;;;4939517;29;20474;-73
2022/08/22 01:27:24;;;;;;;3.10;2.50;;;25.60;63.10;;;;;;4924470;29;20423;-73
2022/08/22 01:30:39;;;;;;;3.60;2.67;;;25.60;63.20;;;;;;4938999;29;20431;-73
2022/08/22 01:33:37;;;;;;;2.50;2.30;;;25.60;63.20;;;;;;4938578;29;20474;-73
2022/08/22 01:36:32;;;;;;;3.03;2.50;;;25.50;63.20;;;;;;4922654;29;20490;-73
2022/08/22 01:39:30;;;;;;;4.00;2.30;;;25.50;63.30;;;;;;4919767;29;20479;-73
2022/08/22 01:42:15;;;;;;;2.77;2.47;;;25.50;63.30;;;;;;4936561;28;20902;-73
2022/08/22 01:45:29;;;;;;;3.67;2.67;;;25.50;63.30;;;;;;4937896;29;20454;-73
2022/08/22 01:48:30;;;;;;;2.70;2.50;;;25.50;63.40;;;;;;4938640;29;20407;-73
2022/08/22 01:51:23;;;;;;;2.40;2.20;;;25.40;63.30;;;;;;4938839;29;20428;-73
2022/08/22 01:54:12;;;;;;;3.43;2.70;;;25.40;63.40;;;;;;4945514;28;20462;-73
2022/08/22 01:56:44;;;;;;;2.90;2.50;;;25.40;63.40;;;;;;4922072;29;20558;-73
2022/08/22 01:59:13;;;;;;;4.00;2.73;;;25.40;63.40;;;;;;4921870;29;20557;-73
2022/08/22 02:01:47;;;;;;;5.37;2.70;;;25.40;63.40;;;;;;4922368;29;20976;-73
2022/08/22 02:04:40;;;;;;;5.17;3.00;;;25.40;63.40;;;;;;4922669;29;20566;-73
2022/08/22 02:07:40;;;;;;;2.70;2.33;;;25.40;63.50;;;;;;4923189;29;20447;-73
2022/08/22 02:10:53;;;;;;;2.47;2.10;;;25.40;63.50;;;;;;4938397;29;20430;-73
2022/08/22 02:13:39;;;;;;;2.77;2.57;;;25.40;64.30;;;;;;4952925;28;20548;-73
2022/08/22 02:16:18;;;;;;;4.07;3.10;;;25.30;63.50;;;;;;4932764;28;20429;-73
2022/08/22 02:19:05;;;;;;;3.23;2.40;;;25.30;63.50;;;;;;4976656;28;20490;-73
2022/08/22 02:21:52;;;;;;;4.50;3.03;;;25.30;63.60;;;;;;4959369;28;20443;-73
2022/08/22 02:24:39;;;;;;;4.83;2.33;;;25.30;63.60;;;;;;4976992;28;20525;-73
2022/08/22 02:27:24;;;;;;;4.50;2.50;;;25.20;63.50;;;;;;4943435;28;20430;-73
2022/08/22 02:30:02;;;;;;;3.00;2.70;;;25.20;63.50;;;;;;4959213;28;20457;-73
2022/08/22 02:32:34;;;;;;;5.17;2.60;;;25.20;63.60;;;;;;4959345;28;20967;-73
2022/08/22 02:35:31;;;;;;;2.67;2.40;;;25.20;63.60;;;;;;4959528;28;20422;-73
2022/08/22 02:38:35;;;;;;;2.30;2.10;;;25.20;63.60;;;;;;4959656;28;20819;-73
2022/08/22 02:41:26;;;;;;;3.43;2.57;;;25.20;63.70;;;;;;4974401;28;20449;-73
2022/08/22 02:44:18;;;;;;;3.60;2.70;;;25.20;63.70;;;;;;4995569;28;20472;-73
2022/08/22 02:47:11;;;;;;;3.90;3.03;;;25.10;63.70;;;;;;4978269;28;20450;-73
2022/08/22 02:50:08;;;;;;;3.03;2.63;;;25.10;63.70;;;;;;4994562;28;20809;-73
2022/08/22 02:52:49;;;;;;;4.13;2.17;;;25.10;63.70;;;;;;4995272;28;20487;-73
2022/08/22 02:55:41;;;;;;;2.87;2.57;;;25.10;63.70;;;;;;4962581;28;20422;-73
2022/08/22 02:58:10;;;;;;;2.90;2.60;;;25.10;63.80;;;;;;4977943;28;20432;-73
2022/08/22 03:01:08;;;;;;;4.23;2.83;;;25.00;63.80;;;;;;4995219;28;20402;-73
2022/08/22 03:03:41;;;;;;;4.10;2.27;;;25.00;63.80;;;;;;4977295;28;20954;-73
2022/08/22 03:06:31;;;;;;;3.30;2.43;;;25.00;63.80;;;;;;4977573;28;20754;-73
2022/08/22 03:09:23;;;;;;;2.83;2.50;;;25.00;63.80;;;;;;4972166;28;20429;-75
2022/08/22 03:12:10;;;;;;;3.17;2.87;;;25.00;63.90;;;;;;4978144;28;20435;-73
2022/08/22 03:14:57;;;;;;;3.80;2.43;;;25.00;63.90;;;;;;4977885;28;20425;-73
2022/08/22 03:17:32;;;;;;;4.60;2.80;;;25.00;63.90;;;;;;4978055;28;20437;-73
2022/08/22 03:20:02;;;;;;;3.97;2.67;;;24.90;63.90;;;;;;4961671;28;20844;-73
2022/08/22 03:22:28;;;;;;;3.40;3.10;;;24.90;63.80;;;;;;4977619;28;20832;-73
2022/08/22 03:25:02;;;;;;;2.07;1.93;;;24.90;63.90;;;;;;4946020;28;20433;-73
2022/08/22 03:27:42;;;;;;;3.03;2.83;;;24.90;63.90;;;;;;4977621;28;20422;-73
2022/08/22 03:30:18;;;;;;;3.53;2.53;;;24.90;63.90;;;;;;4977466;28;20829;-73
2022/08/22 03:33:16;;;;;;;3.07;2.77;;;24.90;63.90;;;;;;4977427;28;20477;-73
2022/08/22 03:35:45;;;;;;;4.37;2.23;;;24.90;63.90;;;;;;4957771;28;20445;-73
2022/08/22 03:38:44;;;;;;;3.10;2.80;;;24.90;64.00;;;;;;4961460;28;20448;-73
2022/08/22 03:41:10;;;;;;;3.83;3.07;;;24.80;63.90;;;;;;4977340;28;20416;-73
2022/08/22 03:43:45;;;;;;;3.00;2.57;;;24.80;63.90;;;;;;4961216;28;20998;-73
2022/08/22 03:46:42;;;;;;;4.37;2.50;;;24.80;64.00;;;;;;4975120;28;20182;-73
2022/08/22 03:49:32;;;;;;;3.70;2.70;;;24.80;64.00;;;;;;4977345;28;20427;-73
2022/08/22 03:52:01;;;;;;;3.87;2.87;;;24.80;64.00;;;;;;4975994;28;20490;-73
2022/08/22 03:54:55;;;;;;;2.90;2.50;;;24.70;63.90;;;;;;4961090;28;20425;-73
2022/08/22 03:57:33;;;;;;;3.63;2.33;;;24.70;63.90;;;;;;4960958;28;20460;-73
2022/08/22 04:00:44;;;;;;;2.80;2.30;;;24.70;64.00;;;;;;4960528;28;20922;-73
2022/08/22 04:03:22;;;;;;;2.40;2.10;;;24.70;64.00;;;;;;4992798;28;20471;-73
2022/08/22 04:05:57;;;;;;;3.83;2.60;;;24.70;64.00;;;;;;4976899;28;20421;-73
2022/08/22 04:08:43;;;;;;;3.20;2.90;;;24.70;64.90;;;;;;4960766;28;20405;-73
2022/08/22 04:11:45;;;;;;;2.67;2.43;;;24.70;64.10;;;;;;4977452;28;20398;-73
2022/08/22 04:15:06;;;;;;;3.90;2.83;;;24.60;64.00;;;;;;4960464;28;20959;-73
2022/08/22 04:17:57;;;;;;;2.70;2.27;;;24.60;64.10;;;;;;4976025;28;20802;-73
2022/08/22 04:20:57;;;;;;;2.80;2.60;;;24.60;64.10;;;;;;4992616;28;20441;-73
2022/08/22 04:24:06;;;;;;;2.63;2.43;;;24.60;64.10;;;;;;4976977;28;21001;-73
2022/08/22 04:26:54;;;;;;;2.70;2.50;;;24.50;64.00;;;;;;4976534;28;20818;-73
2022/08/22 04:29:27;;;;;;;2.87;2.57;;;24.50;64.10;;;;;;4976749;28;20769;-73
2022/08/22 04:32:14;;;;;;;2.50;2.30;;;24.50;64.10;;;;;;4944627;28;20417;-73
2022/08/22 04:35:05;;;;;;;3.03;2.70;;;24.50;64.20;;;;;;4960651;28;20436;-73
2022/08/22 04:37:37;;;;;;;4.00;3.20;;;24.50;64.20;;;;;;4960344;28;20756;-73
2022/08/22 04:40:29;;;;;;;4.30;3.30;;;24.50;64.30;;;;;;4953317;28;20453;-73
2022/08/22 04:43:32;;;;;;;3.27;2.47;;;24.50;64.30;;;;;;4967588;28;20488;-73
2022/08/22 04:46:14;;;;;;;2.80;2.40;;;24.40;64.20;;;;;;4925119;28;21195;-73
2022/08/22 04:48:49;;;;;;;2.60;2.40;;;24.50;64.40;;;;;;4957293;28;20956;-73
2022/08/22 04:51:15;;;;;;;3.07;2.27;;;24.40;64.20;;;;;;4973122;28;20433;-73
2022/08/22 04:53:55;;;;;;;2.80;2.60;;;24.40;64.30;;;;;;4956868;28;20497;-73
2022/08/22 04:56:26;;;;;;;3.03;2.50;;;24.40;64.30;;;;;;4957120;28;20422;-73
2022/08/22 04:59:07;;;;;;;2.40;2.20;;;24.40;64.30;;;;;;4941430;28;20422;-73
2022/08/22 05:01:53;;;;;;;4.47;2.30;;;24.40;64.40;;;;;;4973930;28;20767;-73
2022/08/22 05:04:51;;;;;;;2.60;2.40;;;24.40;64.40;;;;;;4956707;28;20978;-73
2022/08/22 05:07:31;;;;;;;3.87;2.67;;;24.40;64.50;;;;;;4956922;28;20417;-73
2022/08/22 05:10:09;;;;;;;5.30;3.00;;;24.30;64.40;;;;;;4957043;28;20533;-73
2022/08/22 05:12:39;;;;;;;2.60;2.40;;;24.30;64.50;;;;;;4956912;28;20450;-73
2022/08/22 05:15:20;;;;;;;3.10;2.40;;;24.30;64.50;;;;;;4925244;28;20461;-73
2022/08/22 05:17:49;;;;;;;5.30;3.10;;;24.30;64.60;;;;;;4956743;28;20900;-73
2022/08/22 05:20:20;;;;;;;2.63;2.37;;;24.30;64.60;;;;;;4973503;28;20486;-73
2022/08/22 05:22:51;;;;;;;3.00;2.70;;;24.30;64.60;;;;;;4973815;28;20473;-73
2022/08/22 05:25:23;;;;;;;3.47;2.60;;;24.30;64.60;;;;;;4974082;28;20436;-73
2022/08/22 05:27:54;;;;;;;3.63;3.03;;;24.30;64.70;;;;;;4974004;28;20481;-73
2022/08/22 05:30:30;;;;;;;3.57;2.73;;;24.20;64.60;;;;;;4944582;28;20466;-73
2022/08/22 05:33:43;;;;;;;6.23;2.40;;;24.20;64.60;;;;;;4977441;28;20876;-73
2022/08/22 05:36:14;;;;;;;3.40;2.83;;;24.20;64.70;;;;;;4947681;28;20528;-73
2022/08/22 05:38:55;;;;;;;3.50;2.83;;;24.20;64.70;;;;;;4976292;28;20406;-73
2022/08/22 05:41:25;;;;;;;4.50;2.83;;;24.20;64.80;;;;;;4960243;28;20416;-73
2022/08/22 05:43:54;;;;;;;3.70;2.93;;;24.20;64.90;;;;;;4944048;28;20474;-73
2022/08/22 05:46:42;;;;;;;2.90;2.70;;;24.20;64.90;;;;;;4960091;28;20437;-73
2022/08/22 05:49:39;;;;;;;3.47;3.17;;;24.20;65.00;;;;;;4959977;28;20445;-73
2022/08/22 05:52:38;;;;;;;4.23;2.93;;;24.20;65.00;;;;;;4960218;28;20425;-73
2022/08/22 05:55:37;;;;;;;3.50;2.87;;;24.20;65.20;;;;;;4976406;28;20896;-73
2022/08/22 05:58:38;;;;;;;2.87;2.63;;;24.10;65.20;;;;;;4979079;28;20413;-73
2022/08/22 06:01:15;;;;;;;4.73;2.53;;;24.10;65.30;;;;;;4973402;28;20460;-73
2022/08/22 06:03:45;;;;;;;3.00;2.80;;;24.10;65.40;;;;;;4979237;28;20851;-73
2022/08/22 06:06:16;;;;;;;3.97;3.17;;;24.10;65.40;;;;;;4979136;28;20452;-73
2022/08/22 06:08:57;;;;;;;3.30;2.53;;;24.10;65.50;;;;;;4995032;28;20398;-73
2022/08/22 06:11:38;;;;;;;4.40;2.60;;;24.10;65.60;;;;;;4996352;28;20512;-73
2022/08/22 06:14:25;;;;;;;4.80;2.47;;;24.10;65.60;;;;;;4996160;28;20441;-73
2022/08/22 06:17:10;;;;;;;3.20;2.57;;;24.10;65.70;;;;;;4996018;28;20429;-72
2022/08/22 06:19:41;;;;;;;4.60;3.80;;;24.10;65.80;;;;;;4996296;28;20543;-74
2022/08/22 06:22:09;;;;;;;3.90;3.37;;;24.10;66.00;;;;;;4978347;28;20406;-73
2022/08/22 06:24:37;;;;;;;3.83;2.80;;;24.10;66.00;;;;;;4942753;28;20979;-72
2022/08/22 06:27:10;;;;;;;3.00;2.77;;;24.10;66.00;;;;;;4976881;28;20433;-72
2022/08/22 06:29:56;;;;;;;3.70;3.20;;;24.10;66.10;;;;;;4975291;28;20396;-74
2022/08/22 06:32:26;;;;;;;3.33;3.00;;;24.10;66.20;;;;;;4943178;28;20446;-74
2022/08/22 06:35:19;;;;;;;2.93;2.33;;;24.10;66.40;;;;;;4916543;29;20436;-73
2022/08/22 06:37:48;;;;;;;3.87;3.47;;;24.10;66.30;;;;;;4967859;28;20907;-74
2022/08/22 06:40:17;;;;;;;4.00;2.83;;;24.10;66.30;;;;;;4958097;28;20399;-73
2022/08/22 06:42:49;;;;;;;4.67;3.47;;;24.00;66.20;;;;;;4958429;28;20470;-73
2022/08/22 06:45:26;;;;;;;4.60;2.93;;;24.00;67.00;;;;;;4958626;28;20414;-73
2022/08/22 06:48:05;;;;;;;6.30;3.43;;;24.00;66.10;;;;;;4942659;28;20509;-74
2022/08/22 06:50:40;;;;;;;4.60;2.77;;;24.00;66.20;;;;;;4958878;28;20414;-74
2022/08/22 06:53:17;;;;;;;4.40;3.07;;;24.10;66.40;;;;;;4957976;28;20449;-74
2022/08/22 06:55:50;;;;;;;3.67;3.10;;;24.10;66.50;;;;;;4958077;28;20461;-74
2022/08/22 06:58:23;;;;;;;3.40;3.10;;;24.00;66.20;;;;;;4973946;28;20413;-74
2022/08/22 07:00:55;;;;;;;4.07;3.03;;;24.00;66.20;;;;;;4975126;28;20414;-74
2022/08/22 07:03:21;;;;;;;3.27;2.97;;;24.00;66.20;;;;;;4972399;28;20817;-72
2022/08/22 07:05:54;;;;;;;4.13;2.77;;;24.00;66.20;;;;;;4972121;28;20457;-72
2022/08/22 07:08:23;;;;;;;3.73;2.73;;;24.00;66.40;;;;;;4956071;28;20982;-72
2022/08/22 07:11:04;;;;;;;5.70;3.13;;;24.10;66.40;;;;;;4971681;28;20526;-70
2022/08/22 07:13:35;;;;;;;3.10;2.67;;;24.10;66.50;;;;;;4972815;28;20448;-70
2022/08/22 07:16:07;;;;;;;6.90;2.80;;;24.00;66.30;;;;;;4968251;28;21015;-71
2022/08/22 07:18:52;;;;;;;4.60;3.17;;;24.10;66.50;;;;;;4936448;29;20458;-71
2022/08/22 07:21:27;;;;;;;4.00;3.33;;;24.10;66.60;;;;;;4938139;29;20479;-73
2022/08/22 07:23:55;;;;;;;4.77;3.37;;;24.10;66.60;;;;;;4936455;29;21078;-73
2022/08/22 07:26:42;;;;;;;4.97;3.00;;;24.10;66.60;;;;;;4922876;29;20420;-74
2022/08/22 07:29:41;;;;;;;5.80;3.30;;;24.00;66.60;;;;;;4954238;29;20439;-73
2022/08/22 07:32:29;;;;;;;3.47;3.10;;;24.10;66.80;;;;;;4938381;29;20497;-72
2022/08/22 07:35:18;;;;;;;3.33;3.00;;;24.00;66.80;;;;;;4936244;29;20762;-73
2022/08/22 07:38:27;;;;;;;3.90;3.20;;;24.10;66.90;;;;;;4905964;29;20437;-73
2022/08/22 07:41:10;;;;;;;2.90;2.67;;;24.10;66.90;;;;;;4920587;29;20442;-73
2022/08/22 07:43:53;;;;;;;4.80;3.00;;;24.10;67.00;;;;;;4921341;29;20477;-72
2022/08/22 07:46:21;;;;;;;3.43;3.00;;;24.00;66.90;;;;;;4938498;29;20411;-72
2022/08/22 07:48:53;;;;;;;3.73;2.90;;;24.10;66.90;;;;;;4937903;29;20410;-73
2022/08/22 07:51:33;;;;;;;5.57;3.37;;;24.10;67.00;;;;;;4954931;28;20198;-72
2022/08/22 07:54:09;;;;;;;3.90;3.37;;;24.10;67.00;;;;;;4937602;29;20502;-72
2022/08/22 07:56:48;;;;;;;3.33;3.03;;;24.10;66.90;;;;;;4954992;29;20402;-72
2022/08/22 07:59:18;;;;;;;6.03;3.23;;;24.10;66.90;;;;;;4969497;28;20411;-72
2022/08/22 08:01:51;;;;;;;4.67;2.63;;;24.10;67.00;;;;;;4954843;29;20782;-72
2022/08/22 08:04:33;;;;;;;3.20;2.90;;;24.10;67.00;;;;;;4922135;29;20466;-72
2022/08/22 08:07:04;;;;;;;4.53;3.33;;;24.10;66.90;;;;;;4937864;29;20418;-72
2022/08/22 08:09:33;;;;;;;4.27;3.10;;;24.10;66.90;;;;;;4954704;29;20403;-73
2022/08/22 08:12:03;;;;;;;3.33;2.97;;;24.10;67.00;;;;;;4952788;29;20446;-73
2022/08/22 08:14:31;;;;;;;2.90;2.60;;;24.10;67.00;;;;;;4954733;29;20470;-73
2022/08/22 08:17:16;;;;;;;4.30;3.17;;;24.10;67.00;;;;;;4954742;29;20410;-72
2022/08/22 08:19:43;;;;;;;3.53;3.23;;;24.10;67.10;;;;;;4921835;29;20920;-73
2022/08/22 08:22:16;;;;;;;5.83;3.80;;;24.10;67.20;;;;;;4937500;29;20407;-72
2022/08/22 08:24:48;;;;;;;3.33;2.83;;;24.10;67.20;;;;;;4921489;29;20462;-72
2022/08/22 08:30:27;;;;;;;4.10;3.30;;;24.10;67.10;;;;;;4937553;29;20426;-73
2022/08/22 08:32:59;;;;;;;4.23;3.10;;;24.10;67.10;;;;;;4912208;29;20502;-74
2022/08/22 08:35:32;;;;;;;4.00;2.90;;;24.10;67.20;;;;;;4922006;29;20447;-73
2022/08/22 08:38:14;;;;;;;4.53;3.33;;;24.20;67.40;;;;;;4937449;29;20422;-73
2022/08/22 08:40:43;;;;;;;5.20;3.70;;;24.20;67.60;;;;;;4959331;28;20492;-73
2022/08/22 08:43:28;;;;;;;3.40;3.10;;;24.20;67.70;;;;;;4975766;28;20505;-73
2022/08/22 08:46:19;;;;;;;3.50;3.13;;;24.20;67.70;;;;;;4975595;28;20401;-73
2022/08/22 08:49:08;;;;;;;4.53;3.43;;;24.20;67.70;;;;;;4975775;28;20807;-74
2022/08/22 08:51:41;;;;;;;4.83;3.60;;;24.20;67.60;;;;;;4992200;28;20417;-72
2022/08/22 08:54:26;;;;;;;4.53;3.30;;;24.20;67.70;;;;;;4975173;28;20905;-71
2022/08/22 08:57:00;;;;;;;4.20;2.90;;;24.30;67.60;;;;;;4943605;28;20508;-72
2022/08/22 08:59:47;;;;;;;4.67;3.20;;;24.30;67.40;;;;;;4993009;28;20402;-69
2022/08/22 09:02:27;;;;;;;4.10;3.27;;;24.30;67.20;;;;;;4993295;28;20510;-69
2022/08/22 09:05:38;;;;;;;4.13;2.90;;;24.30;67.00;;;;;;4997557;28;20414;-69
2022/08/22 09:08:26;;;;;;;4.07;3.60;;;24.40;67.10;;;;;;4961994;28;20495;-71
2022/08/22 09:11:24;;;;;;;4.83;3.43;;;24.40;66.90;;;;;;4963874;28;20401;-72
2022/08/22 09:14:28;;;;;;;4.50;3.10;;;24.40;66.80;;;;;;4979794;28;20445;-72
2022/08/22 09:17:13;;;;;;;4.37;3.53;;;24.40;66.70;;;;;;4947356;28;20502;-70
2022/08/22 09:19:59;;;;;;;4.77;3.57;;;24.40;66.60;;;;;;4997384;28;20405;-73
2022/08/22 09:22:51;;;;;;;3.67;3.37;;;24.50;66.80;;;;;;4997005;28;20516;-71
2022/08/22 09:25:27;;;;;;;3.80;2.77;;;24.50;66.60;;;;;;4979694;28;20454;-71
2022/08/22 09:28:05;;;;;;;3.90;3.00;;;24.50;66.50;;;;;;4963526;28;20476;-71
2022/08/22 09:31:00;;;;;;;3.10;2.87;;;24.50;66.40;;;;;;4997017;28;20401;-71
2022/08/22 09:33:43;;;;;;;3.13;2.93;;;24.60;66.50;;;;;;4979694;28;20469;-71
2022/08/22 09:36:25;;;;;;;3.30;3.00;;;24.60;66.40;;;;;;4963709;28;20424;-71
2022/08/22 09:38:56;;;;;;;3.43;3.13;;;24.60;66.20;;;;;;4963490;28;20441;-73
2022/08/22 09:41:38;;;;;;;3.60;3.30;;;24.70;66.10;;;;;;4996827;28;20448;-72
2022/08/22 09:44:39;;;;;;;3.50;3.00;;;24.70;66.10;;;;;;4996706;28;20477;-72
2022/08/22 09:47:22;;;;;;;3.37;3.07;;;24.70;65.90;;;;;;4947606;28;20922;-72
2022/08/22 09:50:02;;;;;;;3.37;3.07;;;24.80;65.90;;;;;;4963521;28;21160;-71
2022/08/22 09:52:49;;;;;;;3.37;3.07;;;24.80;65.80;;;;;;4979506;28;20425;-72
2022/08/22 09:55:41;;;;;;;4.80;3.00;;;24.80;65.70;;;;;;4996346;28;20413;-71
2022/08/22 09:58:57;;;;;;;3.10;2.83;;;24.90;65.70;;;;;;4962790;28;20446;-72
2022/08/22 10:01:29;;;;;;;3.50;3.10;;;24.90;65.60;;;;;;4962808;28;20437;-72
2022/08/22 10:04:13;;;;;;;3.00;2.70;;;24.90;65.40;;;;;;4978215;28;20888;-72
2022/08/22 10:06:56;;;;;;;2.70;2.50;;;25.00;65.40;;;;;;4994958;28;20443;-71
2022/08/22 10:09:27;;;;;;;3.50;3.20;;;25.00;65.10;;;;;;4994474;28;20500;-71
2022/08/22 10:12:19;;;;;;;3.00;2.70;;;25.00;65.10;;;;;;4977366;28;20413;-71
2022/08/22 10:15:07;;;;;;;3.77;3.23;;;25.10;65.00;;;;;;4976151;28;20460;-71
2022/08/22 10:17:40;;;;;;;3.37;2.77;;;25.10;64.80;;;;;;4994769;28;20805;-71
2022/08/22 10:20:20;;;;;;;3.97;2.60;;;25.10;64.80;;;;;;4994891;28;20409;-72
2022/08/22 10:22:55;;;;;;;5.80;2.53;;;25.20;64.80;;;;;;4962180;28;20520;-72
2022/08/22 10:25:32;;;;;;;4.90;2.77;;;25.20;64.10;;;;;;4995234;28;20393;-71
2022/08/22 10:28:21;;;;;;;4.80;2.53;;;25.30;63.40;;;;;;4977762;28;20428;-70
2022/08/22 10:30:49;;;;;;;6.53;3.17;;;25.40;61.50;;;;;;4995502;28;20822;-72
2022/08/22 10:33:43;;;;;;;3.47;3.17;;;25.50;60.90;;;;;;4995084;28;20444;-72
2022/08/22 10:36:22;;;;;;;3.67;2.57;;;25.60;60.30;;;;;;4962163;28;21000;-71
2022/08/22 10:38:54;;;;;;;3.57;2.57;;;25.60;59.50;;;;;;4977173;28;20468;-72
2022/08/22 10:41:46;;;;;;;3.50;3.00;;;25.80;59.90;;;;;;4959573;28;20437;-72
2022/08/22 10:44:16;;;;;;;5.47;3.40;;;25.90;59.50;;;;;;4973876;28;20466;-72
2022/08/22 10:46:59;;;;;;;7.73;2.97;;;25.90;59.50;;;;;;4974672;28;20806;-71
2022/08/22 10:49:49;;;;;;;4.77;3.00;;;26.00;59.20;;;;;;4957795;28;20491;-71
2022/08/22 10:52:23;;;;;;;12.43;3.03;;;26.10;59.00;;;;;;4975401;28;20494;-69
2022/08/22 10:54:53;;;;;;;18.03;3.10;;;26.10;58.60;;;;;;4958759;28;20445;-70
2022/08/22 10:57:31;;;;;;;10.23;3.07;;;26.20;58.40;;;;;;4976199;28;20418;-70
2022/08/22 10:59:57;;;;;;;5.03;2.90;;;26.20;57.70;;;;;;4975769;28;20444;-70
2022/08/22 11:02:39;;;;;;;4.20;3.00;;;26.30;58.30;;;;;;4975802;28;20539;-72
2022/08/22 11:05:45;;;;;;;5.13;2.23;;;26.30;58.10;;;;;;4975657;28;20408;-71
2022/08/22 11:08:13;;;;;;;4.90;2.63;;;26.50;58.50;;;;;;4957842;28;21166;-71
2022/08/22 11:10:47;;;;;;;10.20;3.50;;;26.60;57.50;;;;;;4975259;28;20402;-71
2022/08/22 11:13:25;;;;;;;4.80;2.97;;;26.60;57.70;;;;;;4957447;28;20458;-71
2022/08/22 11:16:00;;;;;;;6.27;3.47;;;26.70;56.70;;;;;;4957188;28;20441;-72
2022/08/22 11:18:41;;;;;;;20.93;3.50;;;26.70;57.50;;;;;;4969916;28;20418;-73
2022/08/22 11:21:23;;;;;;;6.37;3.27;;;26.70;57.70;;;;;;4938119;29;20442;-73
2022/08/22 11:24:15;;;;;;;7.77;2.60;;;26.80;57.00;;;;;;4955037;28;21022;-73
2022/08/22 11:26:59;;;;;;;7.53;3.10;;;26.80;57.40;;;;;;4954593;28;20435;-72
2022/08/22 11:29:40;;;;;;;5.73;2.40;;;26.80;57.40;;;;;;4937935;29;20796;-72
2022/08/22 11:33:05;;;;;;;10.50;3.17;;;26.90;56.80;;;;;;4921881;29;20473;-72
2022/08/22 11:35:48;;;;;;;6.23;2.50;;;26.90;57.10;;;;;;4918009;29;20412;-71
2022/08/22 11:38:14;;;;;;;4.73;2.60;;;26.90;57.10;;;;;;4937906;29;20451;-71
2022/08/22 11:41:11;;;;;;;3.17;2.60;;;27.00;56.40;;;;;;4953788;29;20435;-73
2022/08/22 11:43:46;;;;;;;3.47;2.80;;;27.00;56.00;;;;;;4921761;29;20489;-72
2022/08/22 11:46:32;;;;;;;3.80;2.90;;;27.00;56.00;;;;;;4953540;29;20415;-73
2022/08/22 11:49:30;;;;;;;5.47;2.90;;;27.00;55.80;;;;;;4953423;29;20449;-73
2022/08/22 11:52:11;;;;;;;2.40;2.20;;;27.00;55.70;;;;;;4953868;29;20482;-73
2022/08/22 11:54:52;;;;;;;4.20;2.60;;;27.10;55.40;;;;;;4953545;29;20849;-72
2022/08/22 11:57:43;;;;;;;4.33;3.03;;;27.10;55.20;;;;;;4953639;29;20443;-73
2022/08/22 12:00:46;;;;;;;7.80;3.20;;;27.00;55.80;;;;;;4937636;29;20518;-72
2022/08/22 12:03:15;;;;;;;10.50;2.77;;;27.10;55.80;;;;;;4937208;29;20478;-72
2022/08/22 12:06:21;;;;;;;4.40;2.73;;;27.20;55.90;;;;;;4933023;29;20458;-72
2022/08/22 12:08:49;;;;;;;5.97;2.93;;;27.20;55.70;;;;;;4932126;29;21012;-72
2022/08/22 12:11:47;;;;;;;11.63;2.97;;;27.30;54.70;;;;;;4917324;29;20439;-71
2022/08/22 12:14:27;;;;;;;9.00;3.40;;;27.30;55.10;;;;;;4917530;29;20491;-72
2022/08/22 12:16:58;;;;;;;20.20;3.63;;;27.30;54.90;;;;;;4917510;29;20435;-71
2022/08/22 12:19:46;;;;;;;10.30;3.10;;;27.40;55.20;;;;;;4917125;28;20431;-73
2022/08/22 12:22:12;;;;;;;4.83;3.10;;;27.40;54.90;;;;;;4917312;29;20917;-72
2022/08/22 12:25:26;;;;;;;3.77;2.30;;;27.50;54.50;;;;;;4917234;29;20558;-74
2022/08/22 12:28:04;;;;;;;4.50;2.73;;;27.50;54.20;;;;;;4904908;29;20440;-74
2022/08/22 12:30:38;;;;;;;5.87;3.30;;;27.60;54.90;;;;;;4932840;29;20539;-73
2022/08/22 12:33:08;;;;;;;7.77;2.93;;;27.60;54.70;;;;;;4901301;29;20475;-75
2022/08/22 12:35:39;;;;;;;7.03;3.27;;;27.60;55.10;;;;;;4917044;29;20436;-75
2022/08/22 12:38:37;;;;;;;3.90;2.87;;;27.60;55.30;;;;;;4955200;28;20500;-75
2022/08/22 12:41:30;;;;;;;4.53;2.90;;;27.70;55.60;;;;;;4971667;28;20466;-75
2022/08/22 12:44:04;;;;;;;4.93;2.80;;;27.60;54.60;;;;;;4973151;28;20458;-75
2022/08/22 12:46:55;;;;;;;4.63;2.70;;;27.70;55.00;;;;;;4955889;28;20438;-75
2022/08/22 12:49:30;;;;;;;5.20;3.03;;;27.70;55.00;;;;;;4955781;28;20430;-75
2022/08/22 12:52:12;;;;;;;4.13;2.77;;;27.70;54.60;;;;;;4955892;28;20430;-75
2022/08/22 12:54:59;;;;;;;3.87;2.53;;;27.70;54.00;;;;;;4956260;28;20818;-74
2022/08/22 12:57:50;;;;;;;5.13;2.73;;;27.70;54.60;;;;;;4956675;28;20472;-72
2022/08/22 13:00:30;;;;;;;10.83;2.87;;;27.70;54.20;;;;;;4973006;28;20772;-72
2022/08/22 13:03:01;;;;;;;5.90;2.70;;;27.80;54.30;;;;;;4939886;28;20466;-72
2022/08/22 13:05:29;;;;;;;4.73;2.50;;;27.80;54.30;;;;;;4940050;28;20414;-73
2022/08/22 13:08:15;;;;;;;5.87;2.83;;;27.90;54.40;;;;;;4971863;28;20390;-71
2022/08/22 13:10:49;;;;;;;7.20;3.03;;;27.90;54.50;;;;;;4972947;28;20442;-74
2022/08/22 13:13:26;;;;;;;8.47;3.20;;;28.00;54.30;;;;;;4949174;28;21065;-74
2022/08/22 13:16:09;;;;;;;5.27;3.10;;;28.00;54.20;;;;;;4934678;29;20749;-73
2022/08/22 13:19:06;;;;;;;6.77;2.83;;;28.10;54.00;;;;;;4918613;29;20434;-75
2022/08/22 13:21:43;;;;;;;6.20;2.70;;;28.10;54.00;;;;;;4934674;29;21259;-73
2022/08/22 13:24:16;;;;;;;8.30;2.90;;;28.10;54.20;;;;;;4917272;29;20557;-72
2022/08/22 13:26:54;;;;;;;9.27;3.20;;;28.10;54.00;;;;;;4952462;29;20418;-73
2022/08/22 13:29:25;;;;;;;4.90;3.07;;;28.20;54.30;;;;;;4936141;29;20410;-73
2022/08/22 13:32:00;;;;;;;7.10;3.20;;;28.20;52.30;;;;;;4934442;29;20447;-74
2022/08/22 13:34:37;;;;;;;3.37;2.70;;;28.30;52.50;;;;;;4934380;29;20443;-73
2022/08/22 13:37:05;;;;;;;6.33;3.00;;;28.30;52.60;;;;;;4951351;29;20457;-73
2022/08/22 13:39:42;;;;;;;5.10;2.67;;;28.30;52.50;;;;;;4951623;29;20407;-73
2022/08/22 13:42:23;;;;;;;3.23;2.90;;;28.40;53.30;;;;;;4919963;29;20446;-73
2022/08/22 13:44:54;;;;;;;4.50;2.80;;;28.40;53.10;;;;;;4924714;28;20468;-73
2022/08/22 13:47:27;;;;;;;5.03;2.80;;;28.40;53.30;;;;;;4972310;28;20406;-73
2022/08/22 13:50:13;;;;;;;5.83;3.20;;;28.40;53.00;;;;;;4941234;28;20509;-73
2022/08/22 13:52:48;;;;;;;4.73;2.70;;;28.50;52.70;;;;;;4958767;28;20450;-73
2022/08/22 13:55:24;;;;;;;3.87;3.13;;;28.60;52.20;;;;;;4976221;28;20394;-73
2022/08/22 13:58:15;;;;;;;5.00;3.03;;;28.60;51.80;;;;;;4958193;28;20461;-73
2022/08/22 14:01:39;;;;;;;6.70;3.20;;;28.60;51.50;;;;;;4959961;28;21036;-73
2022/08/22 14:04:32;;;;;;;7.83;3.67;;;28.50;52.30;;;;;;4952512;29;20493;-73
2022/08/22 14:07:17;;;;;;;3.33;2.90;;;28.50;51.50;;;;;;4906179;29;21237;-73
2022/08/22 14:10:04;;;;;;;7.87;3.50;;;28.50;51.60;;;;;;4951810;29;20517;-75